Pagina principală
METAR-TAF:

METAR-TAF

Aeroporturi :

Beatrice Municipal Airport

Beatrice, Nebraska, Statele Unite ale Americii

Latitudine: 40-18N, longitudine: 096-45W, elevație: 403 m

Observații meteo curente

Raportul a fost făcut în urmă cu 27 de minute, la 00:55 UTC
Vânt 18 kt de la Nord-vest cu rafale de până la 23 kt
Temperatură 18°C
Umiditate 64%
Presiune 1008 hPa
Vizibilitate: 16.1 km
Total acoperit la o înălțime de 4400 picior

METAR: KBIE 220055Z AUTO 31018G23KT 10SM OVC044 18/11 A2976 RMK AO2 T01750110

Ora: 20:22 (01:22 UTC)


TAF: lipsă

Observații și prognoze meteo pentru peste 4.000 de aeroporturi (rapoarte METAR și TAF).

Stațiile disponibile sunt reprezentate pe hartă prin puncte galbene și roșii.

Țineți indicatorul mouse-ului pe punctul dorit pentru a vedea denumirea stației.

Apoi, faceți clic pentru a vedea observațiile și prognozele meteorologice.

Pentru a schimba harta: Pentru mărire, faceți clic pe butoanele verzi cu cruce neagră; pentru micșorare, pe butonul verde cu o liniuță; pentru hărți învecinate, pe săgețile verzi.


METAR-TAF: